createdAt,value
2019-04-20T00:02:33.717Z,9.13
2019-04-20T00:07:41.840Z,9.57
2019-04-20T00:13:03.918Z,8.33
2019-04-20T00:18:04.396Z,9.53
2019-04-20T00:23:26.957Z,9.17
2019-04-20T00:28:45.691Z,8.97
2019-04-20T00:33:50.692Z,9.70
2019-04-20T00:38:52.948Z,8.70
2019-04-20T00:43:57.795Z,9.80
2019-04-20T00:49:20.733Z,10.27
2019-04-20T00:54:13.624Z,9.83
2019-04-20T00:59:31.736Z,9.80
2019-04-20T01:04:47.668Z,10.13
2019-04-20T01:10:05.022Z,10.43
2019-04-20T01:15:22.866Z,9.60
2019-04-20T01:20:22.619Z,9.50
2019-04-20T01:25:35.540Z,9.33
2019-04-20T01:30:44.447Z,9.80
2019-04-20T01:36:03.461Z,9.27
2019-04-20T01:40:59.043Z,8.90
2019-04-20T01:46:12.069Z,8.33
2019-04-20T01:51:22.827Z,9.47
2019-04-20T01:56:37.703Z,9.57
2019-04-20T02:01:55.784Z,9.70
2019-04-20T02:07:00.467Z,9.53
2019-04-20T02:12:12.118Z,10.00
2019-04-20T02:17:26.201Z,9.63
2019-04-20T02:22:45.116Z,10.17
2019-04-20T02:27:38.603Z,9.63
2019-04-20T02:33:30.019Z,9.10
2019-04-20T02:38:54.334Z,8.97
2019-04-20T02:44:03.761Z,9.13
2019-04-20T02:49:06.051Z,10.20
2019-04-20T02:54:11.485Z,8.63
2019-04-20T02:59:44.646Z,8.63
2019-04-20T03:03:53.898Z,8.90
2019-04-20T03:09:19.860Z,8.13
2019-04-20T03:14:22.464Z,7.70
2019-04-20T03:19:28.649Z,8.08
2019-04-20T03:24:51.558Z,7.23
2019-04-20T03:30:00.597Z,8.20
2019-04-20T03:35:20.961Z,7.67
2019-04-20T03:40:17.646Z,7.23
2019-04-20T03:45:14.912Z,6.72
2019-04-20T03:50:42.522Z,6.77
2019-04-20T03:56:14.041Z,6.10
2019-04-20T04:01:45.942Z,6.87
2019-04-20T04:06:26.348Z,5.90
2019-04-20T04:11:41.402Z,6.33
2019-04-20T04:16:42.834Z,5.77
2019-04-20T04:22:00.801Z,6.00
2019-04-20T04:27:05.892Z,5.50
2019-04-20T04:32:33.328Z,6.05
2019-04-20T04:37:24.309Z,6.42
2019-04-20T04:42:42.386Z,6.40
2019-04-20T04:47:28.603Z,6.93
2019-04-20T04:52:47.839Z,7.03
2019-04-20T04:57:45.375Z,6.57
2019-04-20T05:02:55.530Z,5.37
2019-04-20T05:08:10.201Z,5.80
2019-04-20T05:13:11.312Z,6.17
2019-04-20T05:18:44.920Z,5.10
2019-04-20T05:23:53.277Z,5.00
2019-04-20T05:28:58.965Z,5.17
2019-04-20T05:34:20.399Z,4.77
2019-04-20T05:39:36.827Z,4.70
2019-04-20T05:44:48.609Z,4.97
2019-04-20T05:49:50.083Z,4.17
2019-04-20T05:55:02.973Z,4.87
2019-04-20T06:00:15.898Z,4.47
2019-04-20T06:05:21.980Z,4.70
2019-04-20T06:10:36.121Z,4.50
2019-04-20T06:15:44.658Z,4.50
2019-04-20T06:20:52.392Z,4.37
2019-04-20T06:26:20.572Z,4.20
2019-04-20T06:31:14.935Z,4.83
2019-04-20T06:36:29.216Z,4.50
2019-04-20T06:41:45.373Z,4.30
2019-04-20T06:46:45.636Z,3.47
2019-04-20T06:51:54.287Z,4.43
2019-04-20T06:57:04.227Z,4.00
2019-04-20T07:02:18.707Z,3.33
2019-04-20T07:07:22.685Z,3.60
2019-04-20T07:12:24.360Z,3.07
2019-04-20T07:23:03.623Z,3.20
2019-04-20T07:28:05.370Z,2.77
2019-04-20T07:33:18.714Z,3.60
2019-04-20T07:38:41.788Z,3.00
2019-04-20T07:43:30.135Z,2.20
2019-04-20T07:48:39.626Z,4.33
2019-04-20T07:53:43.081Z,3.50
2019-04-20T07:58:47.486Z,2.20
2019-04-20T08:04:13.584Z,2.30
2019-04-20T08:09:22.018Z,2.27
2019-04-20T08:14:48.015Z,2.30
2019-04-20T08:19:49.499Z,1.90
2019-04-20T08:24:52.254Z,2.10
2019-04-20T08:30:02.076Z,2.00
2019-04-20T08:35:25.939Z,2.40
2019-04-20T08:40:36.080Z,2.77
2019-04-20T08:45:41.940Z,2.13
2019-04-20T08:50:55.595Z,2.30
2019-04-20T08:55:53.786Z,1.60
2019-04-20T09:00:53.587Z,1.77
2019-04-20T09:06:04.711Z,1.90
2019-04-20T09:11:20.285Z,1.80
2019-04-20T09:16:15.372Z,1.67
2019-04-20T09:21:33.071Z,2.07
2019-04-20T09:26:50.559Z,1.80
2019-04-20T09:32:16.769Z,1.90
2019-04-20T09:37:41.731Z,1.70
2019-04-20T09:42:46.762Z,1.80
2019-04-20T09:47:56.640Z,1.80
2019-04-20T09:53:19.569Z,2.23
2019-04-20T09:58:21.312Z,2.20
2019-04-20T10:03:20.945Z,2.03
2019-04-20T10:08:29.331Z,2.27
2019-04-20T10:13:36.724Z,2.10
2019-04-20T10:18:46.810Z,2.10
2019-04-20T10:23:52.615Z,2.20
2019-04-20T10:28:59.989Z,2.40
2019-04-20T10:34:07.409Z,2.10
2019-04-20T10:39:16.255Z,2.13
2019-04-20T10:44:23.436Z,2.50
2019-04-20T10:49:31.198Z,2.57
2019-04-20T10:54:38.524Z,2.80
2019-04-20T10:59:47.755Z,2.87
2019-04-20T11:04:54.883Z,2.83
2019-04-20T11:10:13.411Z,2.77
2019-04-20T11:15:12.966Z,3.00
2019-04-20T11:20:21.374Z,3.10
2019-04-20T11:25:30.255Z,2.77
2019-04-20T11:30:38.833Z,2.90
2019-04-20T11:35:46.912Z,2.93
2019-04-20T11:41:09.916Z,2.33
2019-04-20T11:46:04.835Z,2.53
2019-04-20T11:51:13.792Z,2.40
2019-04-20T11:56:26.196Z,2.60
2019-04-20T12:01:49.349Z,2.87
2019-04-20T12:06:54.837Z,5.03
2019-04-20T12:12:15.721Z,3.63
2019-04-20T12:17:11.899Z,3.83
2019-04-20T12:22:19.080Z,5.07
2019-04-20T12:27:26.958Z,5.07
2019-04-20T12:32:42.248Z,5.23
2019-04-20T12:37:43.168Z,5.37
2019-04-20T12:42:50.926Z,4.75
2019-04-20T12:47:58.136Z,4.28
2019-04-20T12:53:06.526Z,4.30
2019-04-20T12:58:14.580Z,4.37
2019-04-20T13:03:23.450Z,3.90
2019-04-20T13:08:36.820Z,4.37
2019-04-20T13:14:10.343Z,4.22
2019-04-20T13:19:19.433Z,4.03
2019-04-20T13:24:27.213Z,5.60
2019-04-20T13:29:35.123Z,5.15
2019-04-20T13:34:42.788Z,4.67
2019-04-20T13:39:51.086Z,4.37
2019-04-20T13:44:59.078Z,4.80
2019-04-20T13:50:07.230Z,5.12
2019-04-20T13:55:14.867Z,4.35
2019-04-20T14:00:45.046Z,5.10
2019-04-20T14:05:53.656Z,5.00
2019-04-20T14:11:00.832Z,5.03
2019-04-20T14:16:09.119Z,4.97
2019-04-20T14:21:18.483Z,4.33
2019-04-20T14:26:25.668Z,4.12
2019-04-20T14:31:33.971Z,3.85
2019-04-20T14:36:41.589Z,3.92
2019-04-20T14:41:48.710Z,3.70
2019-04-20T14:46:57.992Z,3.70
2019-04-20T14:52:06.338Z,3.92
2019-04-20T14:57:13.809Z,4.35
2019-04-20T15:02:25.827Z,4.55
2019-04-20T15:07:33.510Z,4.35
2019-04-20T15:12:48.833Z,3.87
2019-04-20T15:17:55.422Z,4.60
2019-04-20T15:23:09.553Z,5.83
2019-04-20T15:28:16.797Z,5.00
2019-04-20T15:33:25.128Z,5.00
2019-04-20T15:38:33.283Z,5.53
2019-04-20T15:43:41.461Z,7.42
2019-04-20T15:48:50.127Z,6.55
2019-04-20T15:53:57.753Z,13.15
2019-04-20T15:59:06.428Z,4.80
2019-04-20T16:04:37.281Z,4.13
2019-04-20T16:09:42.124Z,4.10
2019-04-20T16:14:51.337Z,9.13
2019-04-20T16:20:07.983Z,11.43
2019-04-20T16:25:21.648Z,5.92
2019-04-20T16:30:29.755Z,5.50
2019-04-20T16:35:38.285Z,4.45
2019-04-20T16:40:46.533Z,8.20
2019-04-20T16:45:55.066Z,5.08
2019-04-20T16:51:02.958Z,9.03
2019-04-20T16:56:10.632Z,5.97
2019-04-20T17:01:17.752Z,6.73
2019-04-20T17:06:26.311Z,5.62
2019-04-20T17:11:34.086Z,5.10
2019-04-20T17:16:41.912Z,4.33
2019-04-20T17:21:49.104Z,5.05
2019-04-20T17:27:13.163Z,5.57
2019-04-20T17:32:23.248Z,7.40
2019-04-20T17:37:39.026Z,5.63
2019-04-20T17:42:50.952Z,4.83
2019-04-20T17:48:05.332Z,5.27
2019-04-20T17:53:08.942Z,5.33
2019-04-20T17:58:13.775Z,5.00
2019-04-20T18:03:52.843Z,4.67
2019-04-20T18:08:45.386Z,5.63
2019-04-20T18:13:35.918Z,5.33
2019-04-20T18:19:04.014Z,4.70
2019-04-20T18:24:14.139Z,4.60
2019-04-20T18:29:38.398Z,4.70
2019-04-20T18:34:44.982Z,4.70
2019-04-20T18:39:57.466Z,5.13
2019-04-20T18:45:20.049Z,5.73
2019-04-20T18:50:18.414Z,13.67
2019-04-20T18:55:29.048Z,7.40
2019-04-20T19:00:33.397Z,5.30
2019-04-20T19:05:38.003Z,5.70
2019-04-20T19:10:54.181Z,7.27
2019-04-20T19:16:17.581Z,6.23
2019-04-20T19:21:15.197Z,6.20
2019-04-20T19:26:23.790Z,6.83
2019-04-20T19:31:45.842Z,5.90
2019-04-20T19:36:53.375Z,5.83
2019-04-20T19:41:59.678Z,8.60
2019-04-20T19:47:15.885Z,7.40
2019-04-20T19:52:36.769Z,7.10
2019-04-20T19:57:35.091Z,5.90
2019-04-20T20:02:25.931Z,6.37
2019-04-20T20:07:41.192Z,6.67
2019-04-20T20:12:47.951Z,6.80
2019-04-20T20:18:10.976Z,8.20
2019-04-20T20:23:01.853Z,6.40
2019-04-20T20:28:19.127Z,5.27
2019-04-20T20:33:36.405Z,5.85
2019-04-20T20:38:35.255Z,6.13
2019-04-20T20:43:49.570Z,6.57
2019-04-20T20:49:06.213Z,7.40
2019-04-20T20:54:02.246Z,7.17
2019-04-20T20:59:10.543Z,7.10
2019-04-20T21:04:10.063Z,6.83
2019-04-20T21:09:18.495Z,6.10
2019-04-20T21:14:29.261Z,6.23
2019-04-20T21:19:55.794Z,7.80
2019-04-20T21:24:49.808Z,11.07
2019-04-20T21:29:58.658Z,9.27
2019-04-20T21:35:11.039Z,9.30
2019-04-20T21:40:24.931Z,7.10
2019-04-20T21:45:30.330Z,8.03
2019-04-20T21:50:53.447Z,9.00
2019-04-20T21:55:43.726Z,8.10
2019-04-20T22:01:07.236Z,7.77
2019-04-20T22:06:06.924Z,8.03
2019-04-20T22:11:15.669Z,8.67
2019-04-20T22:16:25.595Z,7.92
2019-04-20T22:21:46.629Z,8.13
2019-04-20T22:26:52.444Z,8.43
2019-04-20T22:31:53.486Z,8.87
2019-04-20T22:36:58.216Z,9.93
2019-04-20T22:42:09.628Z,8.97
2019-04-20T22:47:22.682Z,9.07
2019-04-20T22:52:40.920Z,10.13
2019-04-20T22:57:48.837Z,9.83
2019-04-20T23:02:42.865Z,9.30
2019-04-20T23:07:50.565Z,9.70
2019-04-20T23:12:59.569Z,10.73
2019-04-20T23:18:06.552Z,10.57
2019-04-20T23:23:18.191Z,10.30
2019-04-20T23:28:23.048Z,10.90
2019-04-20T23:33:31.819Z,10.37
2019-04-20T23:38:49.078Z,11.20
2019-04-20T23:44:04.175Z,11.47
2019-04-20T23:49:29.874Z,11.23
2019-04-20T23:54:37.053Z,11.30
2019-04-20T23:59:44.940Z,10.17
